sensor_id;sensor_type;location;lat;lon;timestamp;P1;durP1;ratioP1;P2;durP2;ratioP2
77684;SDS011;66844;46.092;18.268;2023-01-29T00:00:24;44.43;;;41.73;;
77684;SDS011;66844;46.092;18.268;2023-01-29T00:01:00;44.20;;;41.70;;
77684;SDS011;66844;46.092;18.268;2023-01-29T00:01:35;44.57;;;41.93;;
77684;SDS011;66844;46.092;18.268;2023-01-29T00:02:05;43.40;;;40.70;;
77684;SDS011;66844;46.092;18.268;2023-01-29T00:02:36;46.23;;;43.40;;
77684;SDS011;66844;46.092;18.268;2023-01-29T00:03:06;44.57;;;42.17;;
77684;SDS011;66844;46.092;18.268;2023-01-29T00:03:37;44.27;;;41.53;;
77684;SDS011;66844;46.092;18.268;2023-01-29T00:04:07;46.13;;;42.97;;
77684;SDS011;66844;46.092;18.268;2023-01-29T00:04:38;44.20;;;41.20;;
77684;SDS011;66844;46.092;18.268;2023-01-29T00:05:08;44.83;;;41.70;;
77684;SDS011;66844;46.092;18.268;2023-01-29T00:05:39;44.63;;;41.47;;
77684;SDS011;66844;46.092;18.268;2023-01-29T00:06:10;44.23;;;41.23;;
77684;SDS011;66844;46.092;18.268;2023-01-29T00:06:41;43.70;;;41.03;;
77684;SDS011;66844;46.092;18.268;2023-01-29T00:07:13;45.03;;;42.00;;
77684;SDS011;66844;46.092;18.268;2023-01-29T00:07:43;42.93;;;39.83;;
77684;SDS011;66844;46.092;18.268;2023-01-29T00:08:14;43.43;;;40.67;;
77684;SDS011;66844;46.092;18.268;2023-01-29T00:08:44;45.33;;;42.37;;
77684;SDS011;66844;46.092;18.268;2023-01-29T00:09:16;44.50;;;41.57;;
77684;SDS011;66844;46.092;18.268;2023-01-29T00:09:47;44.30;;;41.30;;
77684;SDS011;66844;46.092;18.268;2023-01-29T00:10:18;45.53;;;41.90;;
77684;SDS011;66844;46.092;18.268;2023-01-29T00:10:48;46.57;;;42.53;;
77684;SDS011;66844;46.092;18.268;2023-01-29T00:11:19;45.53;;;41.77;;
77684;SDS011;66844;46.092;18.268;2023-01-29T00:11:50;46.27;;;43.00;;
77684;SDS011;66844;46.092;18.268;2023-01-29T00:12:20;45.00;;;41.90;;
77684;SDS011;66844;46.092;18.268;2023-01-29T00:12:51;43.67;;;40.77;;
77684;SDS011;66844;46.092;18.268;2023-01-29T00:13:21;42.20;;;39.80;;
77684;SDS011;66844;46.092;18.268;2023-01-29T00:13:52;43.37;;;41.13;;
77684;SDS011;66844;46.092;18.268;2023-01-29T00:14:23;42.97;;;40.73;;
77684;SDS011;66844;46.092;18.268;2023-01-29T00:14:53;44.73;;;41.80;;
77684;SDS011;66844;46.092;18.268;2023-01-29T00:15:24;45.00;;;41.83;;
77684;SDS011;66844;46.092;18.268;2023-01-29T00:15:55;46.40;;;43.43;;
77684;SDS011;66844;46.092;18.268;2023-01-29T00:16:27;45.17;;;42.03;;
77684;SDS011;66844;46.092;18.268;2023-01-29T00:16:57;45.57;;;42.07;;
77684;SDS011;66844;46.092;18.268;2023-01-29T00:17:28;42.87;;;40.03;;
77684;SDS011;66844;46.092;18.268;2023-01-29T00:17:58;43.87;;;41.40;;
77684;SDS011;66844;46.092;18.268;2023-01-29T00:18:29;44.73;;;42.27;;
77684;SDS011;66844;46.092;18.268;2023-01-29T00:19:00;44.77;;;42.23;;
77684;SDS011;66844;46.092;18.268;2023-01-29T00:19:32;45.53;;;42.73;;
77684;SDS011;66844;46.092;18.268;2023-01-29T00:20:02;45.17;;;42.43;;
77684;SDS011;66844;46.092;18.268;2023-01-29T00:20:33;44.53;;;41.90;;
77684;SDS011;66844;46.092;18.268;2023-01-29T00:21:07;44.73;;;41.90;;
77684;SDS011;66844;46.092;18.268;2023-01-29T00:21:53;44.43;;;41.37;;
77684;SDS011;66844;46.092;18.268;2023-01-29T00:22:24;45.57;;;42.40;;
77684;SDS011;66844;46.092;18.268;2023-01-29T00:22:54;45.07;;;42.13;;
77684;SDS011;66844;46.092;18.268;2023-01-29T00:23:25;44.47;;;41.70;;
77684;SDS011;66844;46.092;18.268;2023-01-29T00:23:55;44.97;;;42.30;;
77684;SDS011;66844;46.092;18.268;2023-01-29T00:24:26;43.50;;;41.20;;
77684;SDS011;66844;46.092;18.268;2023-01-29T00:24:57;42.33;;;40.20;;
77684;SDS011;66844;46.092;18.268;2023-01-29T00:25:28;43.27;;;40.57;;
77684;SDS011;66844;46.092;18.268;2023-01-29T00:25:59;44.50;;;41.47;;
77684;SDS011;66844;46.092;18.268;2023-01-29T00:26:29;44.40;;;41.47;;
77684;SDS011;66844;46.092;18.268;2023-01-29T00:27:00;43.60;;;40.37;;
77684;SDS011;66844;46.092;18.268;2023-01-29T00:27:31;43.07;;;40.37;;
77684;SDS011;66844;46.092;18.268;2023-01-29T00:28:01;43.10;;;40.97;;
77684;SDS011;66844;46.092;18.268;2023-01-29T00:28:32;44.67;;;42.03;;
77684;SDS011;66844;46.092;18.268;2023-01-29T00:29:03;45.70;;;42.03;;
77684;SDS011;66844;46.092;18.268;2023-01-29T00:29:35;43.13;;;39.70;;
77684;SDS011;66844;46.092;18.268;2023-01-29T00:30:05;43.87;;;41.10;;
77684;SDS011;66844;46.092;18.268;2023-01-29T00:30:45;43.83;;;41.50;;
77684;SDS011;66844;46.092;18.268;2023-01-29T00:31:19;42.87;;;40.90;;
77684;SDS011;66844;46.092;18.268;2023-01-29T00:31:52;45.17;;;42.20;;
77684;SDS011;66844;46.092;18.268;2023-01-29T00:32:22;43.60;;;40.60;;
77684;SDS011;66844;46.092;18.268;2023-01-29T00:32:53;45.30;;;42.17;;
77684;SDS011;66844;46.092;18.268;2023-01-29T00:33:23;43.67;;;40.90;;
77684;SDS011;66844;46.092;18.268;2023-01-29T00:33:54;43.47;;;40.77;;
77684;SDS011;66844;46.092;18.268;2023-01-29T00:34:24;42.43;;;39.93;;
77684;SDS011;66844;46.092;18.268;2023-01-29T00:34:55;44.77;;;41.67;;
77684;SDS011;66844;46.092;18.268;2023-01-29T00:35:25;44.67;;;41.17;;
77684;SDS011;66844;46.092;18.268;2023-01-29T00:35:56;44.90;;;41.33;;
77684;SDS011;66844;46.092;18.268;2023-01-29T00:36:27;43.63;;;40.57;;
77684;SDS011;66844;46.092;18.268;2023-01-29T00:36:57;44.33;;;41.57;;
77684;SDS011;66844;46.092;18.268;2023-01-29T00:37:33;44.03;;;41.67;;
77684;SDS011;66844;46.092;18.268;2023-01-29T00:38:04;44.50;;;41.77;;
77684;SDS011;66844;46.092;18.268;2023-01-29T00:38:35;43.37;;;40.47;;
77684;SDS011;66844;46.092;18.268;2023-01-29T00:39:06;44.93;;;41.80;;
77684;SDS011;66844;46.092;18.268;2023-01-29T00:39:39;45.40;;;42.10;;
77684;SDS011;66844;46.092;18.268;2023-01-29T00:40:10;44.43;;;41.67;;
77684;SDS011;66844;46.092;18.268;2023-01-29T00:40:40;44.40;;;41.40;;
77684;SDS011;66844;46.092;18.268;2023-01-29T00:41:30;43.03;;;40.20;;
77684;SDS011;66844;46.092;18.268;2023-01-29T00:42:20;42.87;;;40.27;;
77684;SDS011;66844;46.092;18.268;2023-01-29T00:43:09;42.53;;;40.27;;
77684;SDS011;66844;46.092;18.268;2023-01-29T00:43:59;42.57;;;40.07;;
77684;SDS011;66844;46.092;18.268;2023-01-29T00:44:49;42.37;;;39.97;;
77684;SDS011;66844;46.092;18.268;2023-01-29T00:45:28;42.70;;;39.80;;
77684;SDS011;66844;46.092;18.268;2023-01-29T00:45:59;42.47;;;39.60;;
77684;SDS011;66844;46.092;18.268;2023-01-29T00:46:29;40.70;;;38.23;;
77684;SDS011;66844;46.092;18.268;2023-01-29T00:46:59;41.40;;;38.70;;
77684;SDS011;66844;46.092;18.268;2023-01-29T00:47:30;41.57;;;38.90;;
77684;SDS011;66844;46.092;18.268;2023-01-29T00:48:04;41.73;;;39.00;;
77684;SDS011;66844;46.092;18.268;2023-01-29T00:48:35;42.37;;;39.30;;
77684;SDS011;66844;46.092;18.268;2023-01-29T00:49:06;43.20;;;40.50;;
77684;SDS011;66844;46.092;18.268;2023-01-29T00:49:37;42.30;;;39.70;;
77684;SDS011;66844;46.092;18.268;2023-01-29T00:50:09;41.07;;;38.60;;
77684;SDS011;66844;46.092;18.268;2023-01-29T00:50:41;41.80;;;39.00;;
77684;SDS011;66844;46.092;18.268;2023-01-29T00:51:11;41.47;;;38.53;;
77684;SDS011;66844;46.092;18.268;2023-01-29T00:51:42;42.13;;;39.17;;
77684;SDS011;66844;46.092;18.268;2023-01-29T00:52:12;42.43;;;39.90;;
77684;SDS011;66844;46.092;18.268;2023-01-29T00:52:55;42.70;;;40.27;;
77684;SDS011;66844;46.092;18.268;2023-01-29T00:53:25;40.87;;;38.80;;
77684;SDS011;66844;46.092;18.268;2023-01-29T00:53:56;42.27;;;39.80;;
77684;SDS011;66844;46.092;18.268;2023-01-29T00:54:27;42.33;;;39.73;;
77684;SDS011;66844;46.092;18.268;2023-01-29T00:54:58;42.50;;;40.13;;
77684;SDS011;66844;46.092;18.268;2023-01-29T00:55:29;43.63;;;41.47;;
77684;SDS011;66844;46.092;18.268;2023-01-29T00:56:00;42.33;;;40.07;;
77684;SDS011;66844;46.092;18.268;2023-01-29T00:56:31;43.57;;;40.67;;
77684;SDS011;66844;46.092;18.268;2023-01-29T00:57:05;43.87;;;40.63;;
77684;SDS011;66844;46.092;18.268;2023-01-29T00:57:36;42.33;;;39.63;;
77684;SDS011;66844;46.092;18.268;2023-01-29T00:58:07;41.97;;;39.83;;
77684;SDS011;66844;46.092;18.268;2023-01-29T00:58:38;40.47;;;38.20;;
77684;SDS011;66844;46.092;18.268;2023-01-29T00:59:08;42.13;;;39.43;;
77684;SDS011;66844;46.092;18.268;2023-01-29T00:59:39;44.27;;;41.60;;
77684;SDS011;66844;46.092;18.268;2023-01-29T01:00:11;42.80;;;40.00;;
77684;SDS011;66844;46.092;18.268;2023-01-29T01:00:44;42.17;;;39.43;;
77684;SDS011;66844;46.092;18.268;2023-01-29T01:01:14;42.63;;;40.03;;
77684;SDS011;66844;46.092;18.268;2023-01-29T01:01:45;41.87;;;39.13;;
77684;SDS011;66844;46.092;18.268;2023-01-29T01:02:34;41.90;;;39.10;;
77684;SDS011;66844;46.092;18.268;2023-01-29T01:03:23;43.27;;;40.20;;
77684;SDS011;66844;46.092;18.268;2023-01-29T01:03:53;43.03;;;40.23;;
77684;SDS011;66844;46.092;18.268;2023-01-29T01:04:24;41.60;;;39.07;;
77684;SDS011;66844;46.092;18.268;2023-01-29T01:04:54;41.93;;;39.40;;
77684;SDS011;66844;46.092;18.268;2023-01-29T01:05:25;42.90;;;40.43;;
77684;SDS011;66844;46.092;18.268;2023-01-29T01:06:02;42.23;;;39.97;;
77684;SDS011;66844;46.092;18.268;2023-01-29T01:06:37;42.93;;;40.17;;
77684;SDS011;66844;46.092;18.268;2023-01-29T01:07:09;43.93;;;41.13;;
77684;SDS011;66844;46.092;18.268;2023-01-29T01:07:40;42.87;;;40.07;;
77684;SDS011;66844;46.092;18.268;2023-01-29T01:08:10;43.27;;;39.90;;
77684;SDS011;66844;46.092;18.268;2023-01-29T01:08:59;42.43;;;39.30;;
77684;SDS011;66844;46.092;18.268;2023-01-29T01:09:48;42.77;;;39.90;;
77684;SDS011;66844;46.092;18.268;2023-01-29T01:10:37;41.93;;;39.57;;
77684;SDS011;66844;46.092;18.268;2023-01-29T01:11:07;42.00;;;39.37;;
77684;SDS011;66844;46.092;18.268;2023-01-29T01:11:38;43.77;;;40.93;;
77684;SDS011;66844;46.092;18.268;2023-01-29T01:12:08;41.77;;;39.70;;
77684;SDS011;66844;46.092;18.268;2023-01-29T01:12:39;41.17;;;39.33;;
77684;SDS011;66844;46.092;18.268;2023-01-29T01:13:10;43.83;;;41.23;;
77684;SDS011;66844;46.092;18.268;2023-01-29T01:13:41;42.13;;;39.57;;
77684;SDS011;66844;46.092;18.268;2023-01-29T01:14:12;41.50;;;38.97;;
77684;SDS011;66844;46.092;18.268;2023-01-29T01:14:43;40.53;;;38.30;;
77684;SDS011;66844;46.092;18.268;2023-01-29T01:15:13;40.87;;;38.23;;
77684;SDS011;66844;46.092;18.268;2023-01-29T01:15:44;41.83;;;39.23;;
77684;SDS011;66844;46.092;18.268;2023-01-29T01:16:16;41.87;;;39.27;;
77684;SDS011;66844;46.092;18.268;2023-01-29T01:16:48;41.93;;;39.03;;
77684;SDS011;66844;46.092;18.268;2023-01-29T01:17:18;41.53;;;38.63;;
77684;SDS011;66844;46.092;18.268;2023-01-29T01:17:56;42.10;;;39.13;;
77684;SDS011;66844;46.092;18.268;2023-01-29T01:18:29;43.00;;;39.83;;
77684;SDS011;66844;46.092;18.268;2023-01-29T01:19:00;42.07;;;39.17;;
77684;SDS011;66844;46.092;18.268;2023-01-29T01:19:32;41.93;;;39.53;;
77684;SDS011;66844;46.092;18.268;2023-01-29T01:20:03;42.57;;;40.13;;
77684;SDS011;66844;46.092;18.268;2023-01-29T01:20:34;42.70;;;39.57;;
77684;SDS011;66844;46.092;18.268;2023-01-29T01:21:05;43.67;;;40.30;;
77684;SDS011;66844;46.092;18.268;2023-01-29T01:21:36;43.60;;;40.30;;
77684;SDS011;66844;46.092;18.268;2023-01-29T01:22:06;41.97;;;39.20;;
77684;SDS011;66844;46.092;18.268;2023-01-29T01:22:37;43.57;;;40.77;;
77684;SDS011;66844;46.092;18.268;2023-01-29T01:23:07;41.70;;;39.43;;
77684;SDS011;66844;46.092;18.268;2023-01-29T01:23:38;39.83;;;37.80;;
77684;SDS011;66844;46.092;18.268;2023-01-29T01:24:08;40.50;;;38.20;;
77684;SDS011;66844;46.092;18.268;2023-01-29T01:24:39;41.83;;;39.27;;
77684;SDS011;66844;46.092;18.268;2023-01-29T01:25:09;43.40;;;40.23;;
77684;SDS011;66844;46.092;18.268;2023-01-29T01:25:40;41.63;;;39.17;;
77684;SDS011;66844;46.092;18.268;2023-01-29T01:26:10;41.40;;;38.43;;
77684;SDS011;66844;46.092;18.268;2023-01-29T01:26:41;43.60;;;39.87;;
77684;SDS011;66844;46.092;18.268;2023-01-29T01:27:12;43.53;;;40.27;;
77684;SDS011;66844;46.092;18.268;2023-01-29T01:27:43;44.10;;;40.90;;
77684;SDS011;66844;46.092;18.268;2023-01-29T01:28:13;43.93;;;40.67;;
77684;SDS011;66844;46.092;18.268;2023-01-29T01:28:44;43.50;;;40.40;;
77684;SDS011;66844;46.092;18.268;2023-01-29T01:29:14;40.97;;;38.87;;
77684;SDS011;66844;46.092;18.268;2023-01-29T01:29:45;40.73;;;38.67;;
77684;SDS011;66844;46.092;18.268;2023-01-29T01:30:16;40.57;;;38.17;;
77684;SDS011;66844;46.092;18.268;2023-01-29T01:30:46;41.53;;;39.23;;
77684;SDS011;66844;46.092;18.268;2023-01-29T01:31:17;42.17;;;39.57;;
77684;SDS011;66844;46.092;18.268;2023-01-29T01:31:47;43.00;;;40.13;;
77684;SDS011;66844;46.092;18.268;2023-01-29T01:32:18;42.63;;;39.77;;
77684;SDS011;66844;46.092;18.268;2023-01-29T01:32:48;42.57;;;39.80;;
77684;SDS011;66844;46.092;18.268;2023-01-29T01:33:19;43.57;;;40.77;;
77684;SDS011;66844;46.092;18.268;2023-01-29T01:33:50;42.63;;;39.80;;
77684;SDS011;66844;46.092;18.268;2023-01-29T01:34:23;41.73;;;38.97;;
77684;SDS011;66844;46.092;18.268;2023-01-29T01:34:56;41.63;;;38.90;;
77684;SDS011;66844;46.092;18.268;2023-01-29T01:35:26;41.73;;;39.10;;
77684;SDS011;66844;46.092;18.268;2023-01-29T01:35:59;41.80;;;39.00;;
77684;SDS011;66844;46.092;18.268;2023-01-29T01:36:31;40.97;;;38.77;;
77684;SDS011;66844;46.092;18.268;2023-01-29T01:37:01;41.03;;;38.87;;
77684;SDS011;66844;46.092;18.268;2023-01-29T01:37:32;42.27;;;39.40;;
77684;SDS011;66844;46.092;18.268;2023-01-29T01:38:03;42.43;;;39.50;;
77684;SDS011;66844;46.092;18.268;2023-01-29T01:38:36;42.43;;;39.67;;
77684;SDS011;66844;46.092;18.268;2023-01-29T01:39:13;42.27;;;39.63;;
77684;SDS011;66844;46.092;18.268;2023-01-29T01:39:44;41.10;;;38.90;;
77684;SDS011;66844;46.092;18.268;2023-01-29T01:40:21;40.53;;;38.27;;
77684;SDS011;66844;46.092;18.268;2023-01-29T01:40:53;39.23;;;37.10;;
77684;SDS011;66844;46.092;18.268;2023-01-29T01:41:23;41.80;;;39.13;;
77684;SDS011;66844;46.092;18.268;2023-01-29T01:41:54;42.87;;;39.73;;
77684;SDS011;66844;46.092;18.268;2023-01-29T01:42:28;41.93;;;39.17;;
77684;SDS011;66844;46.092;18.268;2023-01-29T01:42:59;41.90;;;39.43;;
77684;SDS011;66844;46.092;18.268;2023-01-29T01:43:45;41.77;;;39.10;;
77684;SDS011;66844;46.092;18.268;2023-01-29T01:45:31;43.23;;;40.30;;
77684;SDS011;66844;46.092;18.268;2023-01-29T01:46:04;43.33;;;40.47;;
77684;SDS011;66844;46.092;18.268;2023-01-29T01:46:35;43.47;;;40.73;;
77684;SDS011;66844;46.092;18.268;2023-01-29T01:47:06;42.73;;;40.07;;
77684;SDS011;66844;46.092;18.268;2023-01-29T01:47:45;41.13;;;38.70;;
77684;SDS011;66844;46.092;18.268;2023-01-29T01:48:23;41.83;;;39.43;;
77684;SDS011;66844;46.092;18.268;2023-01-29T01:49:10;42.80;;;40.13;;
77684;SDS011;66844;46.092;18.268;2023-01-29T01:49:47;41.97;;;39.13;;
77684;SDS011;66844;46.092;18.268;2023-01-29T01:50:23;41.83;;;39.03;;
77684;SDS011;66844;46.092;18.268;2023-01-29T01:51:03;40.50;;;38.13;;
77684;SDS011;66844;46.092;18.268;2023-01-29T01:51:37;41.63;;;39.13;;
77684;SDS011;66844;46.092;18.268;2023-01-29T01:52:11;42.40;;;39.57;;
77684;SDS011;66844;46.092;18.268;2023-01-29T01:52:47;41.03;;;38.60;;
77684;SDS011;66844;46.092;18.268;2023-01-29T01:53:25;41.40;;;38.53;;
77684;SDS011;66844;46.092;18.268;2023-01-29T01:54:05;41.43;;;38.53;;
77684;SDS011;66844;46.092;18.268;2023-01-29T01:54:41;42.07;;;39.60;;
77684;SDS011;66844;46.092;18.268;2023-01-29T01:55:13;42.07;;;39.77;;
77684;SDS011;66844;46.092;18.268;2023-01-29T01:55:50;42.90;;;40.13;;
77684;SDS011;66844;46.092;18.268;2023-01-29T01:56:30;43.23;;;40.23;;
77684;SDS011;66844;46.092;18.268;2023-01-29T01:57:11;44.03;;;40.87;;
77684;SDS011;66844;46.092;18.268;2023-01-29T01:57:55;44.07;;;41.43;;
77684;SDS011;66844;46.092;18.268;2023-01-29T01:58:36;45.53;;;42.50;;
77684;SDS011;66844;46.092;18.268;2023-01-29T01:59:13;45.83;;;42.53;;
77684;SDS011;66844;46.092;18.268;2023-01-29T01:59:47;45.77;;;42.07;;
77684;SDS011;66844;46.092;18.268;2023-01-29T02:00:39;44.33;;;41.03;;
77684;SDS011;66844;46.092;18.268;2023-01-29T02:01:11;41.57;;;39.47;;
77684;SDS011;66844;46.092;18.268;2023-01-29T02:01:43;42.17;;;40.07;;
77684;SDS011;66844;46.092;18.268;2023-01-29T02:02:19;40.90;;;38.70;;
77684;SDS011;66844;46.092;18.268;2023-01-29T02:03:08;45.07;;;41.87;;
77684;SDS011;66844;46.092;18.268;2023-01-29T02:04:48;43.30;;;40.60;;
77684;SDS011;66844;46.092;18.268;2023-01-29T02:05:37;42.50;;;40.27;;
77684;SDS011;66844;46.092;18.268;2023-01-29T02:06:28;42.37;;;39.97;;
77684;SDS011;66844;46.092;18.268;2023-01-29T02:07:18;42.03;;;39.80;;
77684;SDS011;66844;46.092;18.268;2023-01-29T02:08:07;43.07;;;40.50;;
77684;SDS011;66844;46.092;18.268;2023-01-29T02:08:59;42.40;;;40.17;;
77684;SDS011;66844;46.092;18.268;2023-01-29T02:10:29;42.97;;;39.77;;
77684;SDS011;66844;46.092;18.268;2023-01-29T02:11:06;43.47;;;40.47;;
77684;SDS011;66844;46.092;18.268;2023-01-29T02:11:37;41.97;;;39.63;;
77684;SDS011;66844;46.092;18.268;2023-01-29T02:12:10;43.20;;;40.50;;
77684;SDS011;66844;46.092;18.268;2023-01-29T02:12:43;44.53;;;41.17;;
77684;SDS011;66844;46.092;18.268;2023-01-29T02:13:15;45.93;;;42.40;;
77684;SDS011;66844;46.092;18.268;2023-01-29T02:13:47;42.10;;;39.57;;
77684;SDS011;66844;46.092;18.268;2023-01-29T02:14:22;41.50;;;38.97;;
77684;SDS011;66844;46.092;18.268;2023-01-29T02:14:54;42.63;;;39.50;;
77684;SDS011;66844;46.092;18.268;2023-01-29T02:15:25;41.07;;;38.23;;
77684;SDS011;66844;46.092;18.268;2023-01-29T02:15:55;43.73;;;40.80;;
77684;SDS011;66844;46.092;18.268;2023-01-29T02:16:26;43.17;;;40.20;;
77684;SDS011;66844;46.092;18.268;2023-01-29T02:16:58;43.27;;;40.30;;
77684;SDS011;66844;46.092;18.268;2023-01-29T02:17:30;42.43;;;39.07;;
77684;SDS011;66844;46.092;18.268;2023-01-29T02:18:01;43.07;;;39.60;;
77684;SDS011;66844;46.092;18.268;2023-01-29T02:18:32;44.10;;;40.70;;
77684;SDS011;66844;46.092;18.268;2023-01-29T02:19:15;42.63;;;39.57;;
77684;SDS011;66844;46.092;18.268;2023-01-29T02:25:06;42.37;;;40.47;;
77684;SDS011;66844;46.092;18.268;2023-01-29T02:26:24;42.60;;;40.13;;
77684;SDS011;66844;46.092;18.268;2023-01-29T02:27:21;42.73;;;39.53;;
77684;SDS011;66844;46.092;18.268;2023-01-29T02:29:09;43.40;;;40.43;;
77684;SDS011;66844;46.092;18.268;2023-01-29T02:30:16;44.20;;;40.40;;
77684;SDS011;66844;46.092;18.268;2023-01-29T02:30:58;43.20;;;40.63;;
77684;SDS011;66844;46.092;18.268;2023-01-29T02:31:37;45.00;;;42.03;;
77684;SDS011;66844;46.092;18.268;2023-01-29T02:32:25;43.20;;;40.43;;
77684;SDS011;66844;46.092;18.268;2023-01-29T02:33:07;42.40;;;39.67;;
77684;SDS011;66844;46.092;18.268;2023-01-29T02:34:04;41.43;;;38.80;;
77684;SDS011;66844;46.092;18.268;2023-01-29T02:36:45;42.30;;;40.07;;
77684;SDS011;66844;46.092;18.268;2023-01-29T02:37:24;42.03;;;39.83;;
77684;SDS011;66844;46.092;18.268;2023-01-29T02:40:07;40.63;;;38.40;;
77684;SDS011;66844;46.092;18.268;2023-01-29T02:41:00;40.90;;;38.87;;
77684;SDS011;66844;46.092;18.268;2023-01-29T02:43:46;41.83;;;39.43;;
77684;SDS011;66844;46.092;18.268;2023-01-29T02:44:26;42.10;;;39.67;;
77684;SDS011;66844;46.092;18.268;2023-01-29T02:45:31;40.37;;;38.37;;
77684;SDS011;66844;46.092;18.268;2023-01-29T02:47:32;42.80;;;40.27;;
77684;SDS011;66844;46.092;18.268;2023-01-29T02:48:18;43.93;;;41.40;;
77684;SDS011;66844;46.092;18.268;2023-01-29T02:48:56;41.60;;;39.53;;
77684;SDS011;66844;46.092;18.268;2023-01-29T02:49:58;40.87;;;38.87;;
77684;SDS011;66844;46.092;18.268;2023-01-29T02:51:27;40.80;;;38.57;;
77684;SDS011;66844;46.092;18.268;2023-01-29T02:52:07;41.80;;;38.90;;
77684;SDS011;66844;46.092;18.268;2023-01-29T02:53:32;42.97;;;39.67;;
77684;SDS011;66844;46.092;18.268;2023-01-29T02:54:53;43.73;;;40.13;;
77684;SDS011;66844;46.092;18.268;2023-01-29T02:55:28;41.80;;;39.33;;
77684;SDS011;66844;46.092;18.268;2023-01-29T02:56:43;40.87;;;38.13;;
77684;SDS011;66844;46.092;18.268;2023-01-29T02:57:23;42.17;;;39.40;;
77684;SDS011;66844;46.092;18.268;2023-01-29T02:58:01;43.20;;;40.47;;
77684;SDS011;66844;46.092;18.268;2023-01-29T02:58:42;41.67;;;39.43;;
77684;SDS011;66844;46.092;18.268;2023-01-29T02:59:19;42.37;;;39.50;;
77684;SDS011;66844;46.092;18.268;2023-01-29T02:59:56;42.63;;;39.90;;
77684;SDS011;66844;46.092;18.268;2023-01-29T03:00:37;41.53;;;38.67;;
77684;SDS011;66844;46.092;18.268;2023-01-29T03:01:21;42.73;;;40.20;;
77684;SDS011;66844;46.092;18.268;2023-01-29T03:02:07;40.50;;;38.47;;
77684;SDS011;66844;46.092;18.268;2023-01-29T03:03:39;43.87;;;40.90;;
77684;SDS011;66844;46.092;18.268;2023-01-29T03:04:19;41.20;;;38.67;;
77684;SDS011;66844;46.092;18.268;2023-01-29T03:04:58;41.30;;;38.73;;
77684;SDS011;66844;46.092;18.268;2023-01-29T03:06:21;41.73;;;39.23;;
77684;SDS011;66844;46.092;18.268;2023-01-29T03:07:03;43.80;;;40.87;;
77684;SDS011;66844;46.092;18.268;2023-01-29T03:07:40;41.90;;;39.63;;
77684;SDS011;66844;46.092;18.268;2023-01-29T03:08:20;41.93;;;39.73;;
77684;SDS011;66844;46.092;18.268;2023-01-29T03:09:23;43.60;;;40.17;;
77684;SDS011;66844;46.092;18.268;2023-01-29T03:10:03;43.60;;;40.80;;
77684;SDS011;66844;46.092;18.268;2023-01-29T03:10:52;43.50;;;40.33;;
77684;SDS011;66844;46.092;18.268;2023-01-29T03:11:39;43.10;;;40.33;;
77684;SDS011;66844;46.092;18.268;2023-01-29T03:12:16;42.97;;;40.43;;
77684;SDS011;66844;46.092;18.268;2023-01-29T03:13:07;44.63;;;41.53;;
77684;SDS011;66844;46.092;18.268;2023-01-29T03:13:52;41.67;;;38.77;;
77684;SDS011;66844;46.092;18.268;2023-01-29T03:14:31;42.33;;;39.50;;
77684;SDS011;66844;46.092;18.268;2023-01-29T03:15:49;43.13;;;39.80;;
77684;SDS011;66844;46.092;18.268;2023-01-29T03:16:41;41.93;;;38.93;;
77684;SDS011;66844;46.092;18.268;2023-01-29T03:17:19;43.93;;;40.20;;
77684;SDS011;66844;46.092;18.268;2023-01-29T03:18:00;44.40;;;41.17;;
77684;SDS011;66844;46.092;18.268;2023-01-29T03:18:46;43.03;;;40.30;;
77684;SDS011;66844;46.092;18.268;2023-01-29T03:19:30;45.27;;;41.93;;
77684;SDS011;66844;46.092;18.268;2023-01-29T03:20:08;44.53;;;41.53;;
77684;SDS011;66844;46.092;18.268;2023-01-29T03:20:48;41.23;;;39.00;;
77684;SDS011;66844;46.092;18.268;2023-01-29T03:21:24;40.33;;;38.03;;
77684;SDS011;66844;46.092;18.268;2023-01-29T03:22:18;42.53;;;39.77;;
77684;SDS011;66844;46.092;18.268;2023-01-29T03:22:54;43.53;;;40.67;;
77684;SDS011;66844;46.092;18.268;2023-01-29T03:23:32;44.40;;;41.23;;
77684;SDS011;66844;46.092;18.268;2023-01-29T03:25:34;42.00;;;39.57;;
77684;SDS011;66844;46.092;18.268;2023-01-29T03:26:26;42.87;;;40.13;;
77684;SDS011;66844;46.092;18.268;2023-01-29T03:27:17;41.20;;;39.20;;
77684;SDS011;66844;46.092;18.268;2023-01-29T03:28:11;42.90;;;39.97;;
77684;SDS011;66844;46.092;18.268;2023-01-29T03:29:05;45.10;;;42.00;;
77684;SDS011;66844;46.092;18.268;2023-01-29T03:29:57;44.30;;;41.53;;
77684;SDS011;66844;46.092;18.268;2023-01-29T03:30:52;41.87;;;39.00;;
77684;SDS011;66844;46.092;18.268;2023-01-29T03:31:43;43.10;;;39.93;;
77684;SDS011;66844;46.092;18.268;2023-01-29T03:32:34;42.03;;;39.90;;
77684;SDS011;66844;46.092;18.268;2023-01-29T03:33:08;41.87;;;39.53;;
77684;SDS011;66844;46.092;18.268;2023-01-29T03:33:49;42.17;;;40.27;;
77684;SDS011;66844;46.092;18.268;2023-01-29T03:34:27;40.53;;;38.57;;
77684;SDS011;66844;46.092;18.268;2023-01-29T03:35:04;43.57;;;41.00;;
77684;SDS011;66844;46.092;18.268;2023-01-29T03:35:42;42.80;;;40.47;;
77684;SDS011;66844;46.092;18.268;2023-01-29T03:36:51;42.80;;;39.87;;
77684;SDS011;66844;46.092;18.268;2023-01-29T03:37:34;45.10;;;41.50;;
77684;SDS011;66844;46.092;18.268;2023-01-29T03:38:08;42.67;;;40.20;;
77684;SDS011;66844;46.092;18.268;2023-01-29T03:38:41;43.53;;;40.63;;
77684;SDS011;66844;46.092;18.268;2023-01-29T03:39:12;44.67;;;41.60;;
77684;SDS011;66844;46.092;18.268;2023-01-29T03:39:46;44.50;;;41.17;;
77684;SDS011;66844;46.092;18.268;2023-01-29T03:40:17;43.73;;;40.87;;
77684;SDS011;66844;46.092;18.268;2023-01-29T03:40:49;42.77;;;39.77;;
77684;SDS011;66844;46.092;18.268;2023-01-29T03:41:27;43.67;;;40.83;;
77684;SDS011;66844;46.092;18.268;2023-01-29T03:42:05;42.97;;;40.27;;
77684;SDS011;66844;46.092;18.268;2023-01-29T03:44:14;43.27;;;40.33;;
77684;SDS011;66844;46.092;18.268;2023-01-29T03:45:06;42.83;;;40.07;;
77684;SDS011;66844;46.092;18.268;2023-01-29T03:47:45;43.43;;;40.30;;
77684;SDS011;66844;46.092;18.268;2023-01-29T03:48:38;42.33;;;39.27;;
77684;SDS011;66844;46.092;18.268;2023-01-29T03:49:35;42.17;;;39.77;;
77684;SDS011;66844;46.092;18.268;2023-01-29T03:52:49;40.90;;;38.50;;
77684;SDS011;66844;46.092;18.268;2023-01-29T03:53:46;40.77;;;38.57;;
77684;SDS011;66844;46.092;18.268;2023-01-29T03:54:47;42.10;;;39.67;;
77684;SDS011;66844;46.092;18.268;2023-01-29T03:56:11;43.13;;;40.17;;
77684;SDS011;66844;46.092;18.268;2023-01-29T03:56:41;40.57;;;38.47;;
77684;SDS011;66844;46.092;18.268;2023-01-29T03:57:16;42.70;;;40.43;;
77684;SDS011;66844;46.092;18.268;2023-01-29T03:58:56;40.77;;;38.40;;
77684;SDS011;66844;46.092;18.268;2023-01-29T03:59:38;42.57;;;39.77;;
77684;SDS011;66844;46.092;18.268;2023-01-29T04:01:00;42.00;;;39.40;;
77684;SDS011;66844;46.092;18.268;2023-01-29T04:01:50;40.50;;;38.43;;
77684;SDS011;66844;46.092;18.268;2023-01-29T04:02:33;42.27;;;39.63;;